Time;durP1;ratioP1;P1;durP2;ratioP2;P2;SDS_P1;SDS_P2;PMS_P1;PMS_P2;Temp;Humidity;BMP_temperature;BMP_pressure;BME280_temperature;BME280_humidity;BME280_pressure;Samples;Min_cycle;Max_cycle;Signal;HPM_P1;HPM_P2
2023/08/17 00:02:22;;;;;;;6.40;2.30;;;;;;;;;;5091254;28;20040;-62
2023/08/17 00:04:48;;;;;;;6.38;2.25;;;;;;;;;;5091214;28;20718;-62
2023/08/17 00:07:14;;;;;;;7.40;2.63;;;;;;;;;;5091166;28;20100;-62
2023/08/17 00:09:40;;;;;;;9.25;2.38;;;;;;;;;;5110113;28;20067;-62
2023/08/17 00:12:06;;;;;;;6.97;2.42;;;;;;;;;;5112073;28;20043;-62
2023/08/17 00:14:32;;;;;;;5.15;2.22;;;;;;;;;;5111246;28;20466;-62
2023/08/17 00:16:58;;;;;;;8.73;2.35;;;;;;;;;;5111903;28;20119;-62
2023/08/17 00:19:24;;;;;;;7.13;2.50;;;;;;;;;;5111412;28;20039;-62
2023/08/17 00:21:52;;;;;;;4.85;2.28;;;;;;;;;;5110980;28;20051;-62
2023/08/17 00:24:18;;;;;;;3.95;2.40;;;;;;;;;;5111484;28;20044;-62
2023/08/17 00:26:44;;;;;;;4.47;2.00;;;;;;;;;;5096569;28;20044;-62
2023/08/17 00:29:10;;;;;;;7.65;2.22;;;;;;;;;;5090711;28;20790;-62
2023/08/17 00:31:36;;;;;;;8.70;2.60;;;;;;;;;;5090913;28;20040;-62
2023/08/17 00:34:02;;;;;;;6.35;2.28;;;;;;;;;;5090931;28;20040;-62
2023/08/17 00:36:28;;;;;;;6.40;2.38;;;;;;;;;;5090747;28;20032;-62
2023/08/17 00:38:54;;;;;;;10.68;2.78;;;;;;;;;;5090985;28;20667;-62
2023/08/17 00:41:21;;;;;;;5.72;2.35;;;;;;;;;;5090984;28;20036;-62
2023/08/17 00:43:47;;;;;;;4.45;1.98;;;;;;;;;;5090319;28;20044;-62
2023/08/17 00:46:13;;;;;;;4.07;1.92;;;;;;;;;;5090978;28;20115;-62
2023/08/17 00:48:40;;;;;;;3.55;2.00;;;;;;;;;;5090821;28;20051;-62
2023/08/17 00:51:06;;;;;;;4.97;2.10;;;;;;;;;;5090644;28;20043;-62
2023/08/17 00:53:32;;;;;;;6.28;2.22;;;;;;;;;;5090900;28;20044;-62
2023/08/17 00:55:59;;;;;;;5.00;1.90;;;;;;;;;;5091091;28;20047;-62
2023/08/17 00:58:25;;;;;;;5.15;2.00;;;;;;;;;;5090435;28;20050;-62
2023/08/17 01:00:51;;;;;;;7.97;2.20;;;;;;;;;;5090883;28;20105;-62
2023/08/17 01:03:18;;;;;;;6.00;2.30;;;;;;;;;;5090803;28;20521;-62
2023/08/17 01:05:44;;;;;;;5.10;1.90;;;;;;;;;;5089092;28;20036;-62
2023/08/17 01:08:10;;;;;;;7.13;2.28;;;;;;;;;;5096552;28;20423;-62
2023/08/17 01:10:48;;;;;;;5.82;2.00;;;;;;;;;;5111178;28;20378;-62
2023/08/17 01:13:20;;;;;;;3.30;1.90;;;;;;;;;;5110311;28;20047;-62
2023/08/17 01:15:50;;;;;;;6.95;2.10;;;;;;;;;;5113648;28;20051;-62
2023/08/17 01:18:24;;;;;;;6.30;2.20;;;;;;;;;;5115311;28;20054;-62
2023/08/17 01:20:50;;;;;;;6.00;2.13;;;;;;;;;;5114842;28;20118;-62
2023/08/17 01:23:16;;;;;;;6.93;2.05;;;;;;;;;;5115116;28;20115;-62
2023/08/17 01:25:42;;;;;;;5.75;2.17;;;;;;;;;;5108666;28;20071;-62
2023/08/17 01:28:09;;;;;;;4.70;1.98;;;;;;;;;;5094093;28;20047;-62
2023/08/17 01:30:56;;;;;;;4.70;2.28;;;;;;;;;;5094458;28;20032;-62
2023/08/17 01:33:28;;;;;;;3.13;2.20;;;;;;;;;;5094522;28;20036;-62
2023/08/17 01:35:57;;;;;;;3.83;2.25;;;;;;;;;;5094096;28;20039;-62
2023/08/17 01:38:23;;;;;;;4.28;1.65;;;;;;;;;;5094509;28;20039;-62
2023/08/17 01:40:53;;;;;;;6.40;2.03;;;;;;;;;;5094262;28;20044;-62
2023/08/17 01:43:19;;;;;;;5.13;2.05;;;;;;;;;;5093538;28;20114;-62
2023/08/17 01:45:45;;;;;;;6.05;2.20;;;;;;;;;;5094278;28;20046;-62
2023/08/17 01:48:11;;;;;;;4.95;2.00;;;;;;;;;;5094163;28;20040;-62
2023/08/17 01:50:37;;;;;;;5.93;1.95;;;;;;;;;;5093915;28;20036;-62
2023/08/17 01:53:03;;;;;;;5.05;2.17;;;;;;;;;;5094126;28;20428;-62
2023/08/17 01:55:30;;;;;;;4.18;1.90;;;;;;;;;;5094082;28;20119;-62
2023/08/17 01:57:56;;;;;;;6.43;1.85;;;;;;;;;;5093738;28;20081;-62
2023/08/17 02:00:22;;;;;;;4.00;2.03;;;;;;;;;;5094030;28;20036;-62
2023/08/17 02:02:48;;;;;;;6.05;1.90;;;;;;;;;;5093892;28;20443;-62
2023/08/17 02:05:14;;;;;;;5.88;2.17;;;;;;;;;;5093635;28;20036;-62
2023/08/17 02:07:40;;;;;;;5.10;2.20;;;;;;;;;;5095535;28;20660;-62
2023/08/17 02:10:06;;;;;;;5.70;2.28;;;;;;;;;;5114236;28;20044;-62
2023/08/17 02:12:32;;;;;;;6.43;2.00;;;;;;;;;;5112070;28;20405;-62
2023/08/17 02:14:58;;;;;;;6.22;1.90;;;;;;;;;;5114101;28;20043;-62
2023/08/17 02:17:24;;;;;;;4.05;2.08;;;;;;;;;;5114057;28;20073;-62
2023/08/17 02:19:50;;;;;;;5.15;1.70;;;;;;;;;;5113609;28;20043;-62
2023/08/17 02:22:16;;;;;;;5.28;2.13;;;;;;;;;;5114043;28;20044;-62
2023/08/17 02:24:42;;;;;;;4.18;2.30;;;;;;;;;;5114159;28;20055;-62
2023/08/17 02:27:09;;;;;;;6.40;2.20;;;;;;;;;;5094416;28;20165;-62
2023/08/17 02:29:35;;;;;;;4.65;2.10;;;;;;;;;;5093152;28;20078;-62
2023/08/17 02:32:01;;;;;;;5.80;2.30;;;;;;;;;;5093456;28;20608;-62
2023/08/17 02:34:27;;;;;;;8.52;2.35;;;;;;;;;;5092935;28;20180;-62
2023/08/17 02:36:53;;;;;;;5.75;2.30;;;;;;;;;;5093316;28;20044;-62
2023/08/17 02:39:19;;;;;;;3.83;2.33;;;;;;;;;;5093286;28;20523;-62
2023/08/17 02:41:48;;;;;;;4.18;2.33;;;;;;;;;;5092898;28;20174;-62
2023/08/17 02:44:14;;;;;;;6.60;3.05;;;;;;;;;;5093313;28;20456;-62
2023/08/17 02:46:40;;;;;;;8.65;2.65;;;;;;;;;;5092846;28;20044;-62
2023/08/17 02:49:06;;;;;;;6.05;3.10;;;;;;;;;;5092657;28;20040;-62
2023/08/17 02:51:32;;;;;;;4.50;2.85;;;;;;;;;;5092703;28;20123;-62
2023/08/17 02:53:58;;;;;;;5.93;3.00;;;;;;;;;;5092867;28;20132;-62
2023/08/17 02:56:25;;;;;;;6.53;2.47;;;;;;;;;;5092355;28;20433;-62
2023/08/17 02:58:51;;;;;;;5.25;2.50;;;;;;;;;;5092557;28;20042;-62
2023/08/17 03:01:17;;;;;;;6.25;2.80;;;;;;;;;;5125553;27;20112;-62
2023/08/17 03:03:43;;;;;;;7.00;2.90;;;;;;;;;;5092469;28;20088;-62
2023/08/17 03:06:09;;;;;;;6.93;2.70;;;;;;;;;;5092752;28;20038;-62
2023/08/17 03:08:35;;;;;;;6.85;2.72;;;;;;;;;;5101742;28;20085;-62
2023/08/17 03:11:01;;;;;;;4.95;2.60;;;;;;;;;;5112687;28;20043;-62
2023/08/17 03:13:27;;;;;;;6.90;2.50;;;;;;;;;;5112740;28;20398;-62
2023/08/17 03:15:54;;;;;;;6.07;2.80;;;;;;;;;;5113048;28;20043;-62
2023/08/17 03:18:20;;;;;;;5.65;2.70;;;;;;;;;;5112499;28;20044;-62
2023/08/17 03:20:46;;;;;;;10.52;2.97;;;;;;;;;;5145908;27;20123;-62
2023/08/17 03:23:12;;;;;;;6.15;3.13;;;;;;;;;;5112825;28;20063;-62
2023/08/17 03:25:38;;;;;;;6.53;3.08;;;;;;;;;;5106355;28;20704;-62
2023/08/17 03:28:05;;;;;;;6.75;2.67;;;;;;;;;;5092143;28;20036;-62
2023/08/17 03:30:31;;;;;;;7.35;3.30;;;;;;;;;;5092213;28;20046;-62
2023/08/17 03:32:57;;;;;;;7.78;2.72;;;;;;;;;;5091863;28;20453;-62
2023/08/17 03:35:23;;;;;;;5.57;3.10;;;;;;;;;;5092179;28;20032;-62
2023/08/17 03:37:49;;;;;;;3.35;2.67;;;;;;;;;;5091605;28;20909;-62
2023/08/17 03:40:15;;;;;;;6.85;2.60;;;;;;;;;;5091716;28;20089;-62
2023/08/17 03:42:41;;;;;;;5.05;2.88;;;;;;;;;;5092081;28;20402;-62
2023/08/17 03:45:07;;;;;;;4.63;2.80;;;;;;;;;;5091765;28;20531;-62
2023/08/17 03:47:33;;;;;;;7.45;3.25;;;;;;;;;;5091393;28;20063;-62
2023/08/17 03:49:59;;;;;;;6.55;3.05;;;;;;;;;;5092073;28;20036;-62
2023/08/17 03:52:25;;;;;;;5.10;3.10;;;;;;;;;;5091936;28;20166;-62
2023/08/17 03:54:51;;;;;;;6.43;2.95;;;;;;;;;;5091309;28;20143;-62
2023/08/17 03:57:17;;;;;;;5.13;2.83;;;;;;;;;;5091650;28;20048;-62
2023/08/17 03:59:43;;;;;;;6.18;2.95;;;;;;;;;;5091985;28;20040;-62
2023/08/17 04:02:10;;;;;;;7.32;3.47;;;;;;;;;;5091451;28;20044;-62
2023/08/17 04:04:36;;;;;;;11.10;3.03;;;;;;;;;;5091644;28;20040;-62
2023/08/17 04:07:02;;;;;;;5.72;2.60;;;;;;;;;;5091543;28;20054;-62
2023/08/17 04:09:28;;;;;;;7.95;2.90;;;;;;;;;;5108537;28;20043;-62
2023/08/17 04:11:57;;;;;;;7.30;3.25;;;;;;;;;;5111418;28;20059;-62
2023/08/17 04:14:23;;;;;;;11.55;3.53;;;;;;;;;;5111230;28;20059;-62
2023/08/17 04:16:49;;;;;;;5.88;3.17;;;;;;;;;;5111901;28;20039;-62
2023/08/17 04:19:15;;;;;;;5.95;2.67;;;;;;;;;;5111581;28;20532;-62
2023/08/17 04:21:41;;;;;;;8.57;2.80;;;;;;;;;;5111748;28;20035;-62
2023/08/17 04:24:07;;;;;;;5.47;2.97;;;;;;;;;;5111510;28;20660;-62
2023/08/17 04:26:33;;;;;;;7.15;2.42;;;;;;;;;;5110867;28;20043;-62
2023/08/17 04:28:59;;;;;;;6.53;3.20;;;;;;;;;;5111291;28;20608;-62
2023/08/17 04:31:26;;;;;;;4.75;2.70;;;;;;;;;;5111383;28;20043;-62
2023/08/17 04:33:52;;;;;;;8.60;3.88;;;;;;;;;;5111032;28;20046;-62
2023/08/17 04:36:18;;;;;;;9.70;3.30;;;;;;;;;;5111458;28;20046;-62
2023/08/17 04:38:44;;;;;;;7.07;2.60;;;;;;;;;;5111147;28;20497;-62
2023/08/17 04:41:10;;;;;;;6.47;3.28;;;;;;;;;;5110945;28;20035;-62
2023/08/17 04:43:36;;;;;;;7.50;3.13;;;;;;;;;;5110921;28;20047;-62
2023/08/17 04:46:02;;;;;;;9.23;2.92;;;;;;;;;;5111341;28;20048;-62
2023/08/17 04:48:28;;;;;;;5.85;3.15;;;;;;;;;;5110493;28;20078;-62
2023/08/17 04:50:54;;;;;;;8.35;2.92;;;;;;;;;;5111485;28;20063;-62
2023/08/17 04:53:20;;;;;;;7.18;3.03;;;;;;;;;;5111121;28;20691;-62
2023/08/17 04:55:46;;;;;;;7.55;3.00;;;;;;;;;;5110881;28;20122;-62
2023/08/17 04:58:12;;;;;;;6.35;3.40;;;;;;;;;;5111262;28;20504;-62
2023/08/17 05:00:38;;;;;;;7.68;2.53;;;;;;;;;;5110761;28;20044;-62
2023/08/17 05:03:05;;;;;;;8.70;2.15;;;;;;;;;;5110662;28;20092;-62
2023/08/17 05:05:31;;;;;;;7.15;2.40;;;;;;;;;;5110884;28;20051;-62
2023/08/17 05:07:57;;;;;;;5.75;2.63;;;;;;;;;;5110959;28;20047;-62
2023/08/17 05:10:23;;;;;;;3.83;2.25;;;;;;;;;;5110814;28;20039;-62
2023/08/17 05:12:49;;;;;;;11.77;3.22;;;;;;;;;;5110772;28;20568;-62
2023/08/17 05:15:15;;;;;;;7.45;2.55;;;;;;;;;;5111251;28;20483;-62
2023/08/17 05:17:41;;;;;;;5.93;2.25;;;;;;;;;;5110544;28;20505;-62
2023/08/17 05:20:08;;;;;;;8.23;2.40;;;;;;;;;;5111088;28;20112;-62
2023/08/17 05:22:34;;;;;;;6.00;2.55;;;;;;;;;;5110609;28;20062;-62
2023/08/17 05:25:00;;;;;;;8.35;2.13;;;;;;;;;;5109634;28;20101;-62
2023/08/17 05:27:26;;;;;;;7.60;2.13;;;;;;;;;;5090507;28;20043;-62
2023/08/17 05:29:52;;;;;;;6.82;2.20;;;;;;;;;;5090251;28;20032;-62
2023/08/17 05:32:18;;;;;;;5.43;2.22;;;;;;;;;;5090157;28;20040;-62
2023/08/17 05:34:44;;;;;;;6.18;2.35;;;;;;;;;;5090149;28;20041;-62
2023/08/17 05:37:10;;;;;;;5.30;1.98;;;;;;;;;;5090429;28;20057;-62
2023/08/17 05:39:36;;;;;;;9.48;2.40;;;;;;;;;;5090003;28;20040;-62
2023/08/17 05:42:02;;;;;;;5.53;2.55;;;;;;;;;;5090387;28;20043;-62
2023/08/17 05:44:28;;;;;;;8.38;2.50;;;;;;;;;;5090236;28;20044;-62
2023/08/17 05:46:54;;;;;;;8.60;2.72;;;;;;;;;;5089825;28;20040;-62
2023/08/17 05:49:20;;;;;;;10.40;3.05;;;;;;;;;;5090385;28;20101;-62
2023/08/17 05:51:46;;;;;;;5.40;2.40;;;;;;;;;;5090629;28;20089;-62
2023/08/17 05:54:13;;;;;;;7.68;3.10;;;;;;;;;;5090005;28;20043;-62
2023/08/17 05:56:44;;;;;;;7.55;2.40;;;;;;;;;;5123097;28;20040;-62
2023/08/17 05:59:10;;;;;;;6.00;2.33;;;;;;;;;;5090177;28;20406;-62
2023/08/17 06:01:36;;;;;;;6.20;2.30;;;;;;;;;;5091430;28;20043;-62
2023/08/17 06:04:02;;;;;;;5.47;2.40;;;;;;;;;;5094006;28;20040;-62
2023/08/17 06:06:29;;;;;;;9.02;2.25;;;;;;;;;;5126914;27;20048;-62
2023/08/17 06:08:55;;;;;;;5.90;1.98;;;;;;;;;;5105676;28;20051;-62
2023/08/17 06:11:21;;;;;;;7.55;2.33;;;;;;;;;;5114278;28;20428;-62
2023/08/17 06:13:47;;;;;;;8.02;2.10;;;;;;;;;;5113760;28;20054;-62
2023/08/17 06:16:13;;;;;;;7.60;2.63;;;;;;;;;;5113618;28;20405;-62
2023/08/17 06:18:39;;;;;;;4.72;2.20;;;;;;;;;;5113990;28;20047;-62
2023/08/17 06:21:06;;;;;;;9.00;2.25;;;;;;;;;;5147234;27;20371;-62
2023/08/17 06:23:32;;;;;;;6.85;2.28;;;;;;;;;;5113309;28;20488;-62
2023/08/17 06:25:58;;;;;;;7.80;2.70;;;;;;;;;;5114014;28;20171;-62
2023/08/17 06:28:25;;;;;;;6.43;2.20;;;;;;;;;;5113726;28;20094;-62
2023/08/17 06:30:54;;;;;;;7.10;2.47;;;;;;;;;;5113467;28;20051;-62
2023/08/17 06:33:20;;;;;;;5.30;2.20;;;;;;;;;;5113685;28;20473;-62
2023/08/17 06:35:46;;;;;;;4.47;1.92;;;;;;;;;;5113741;28;20061;-62
2023/08/17 06:38:12;;;;;;;6.45;2.45;;;;;;;;;;5113411;28;20131;-62
2023/08/17 06:40:38;;;;;;;9.65;2.33;;;;;;;;;;5112423;28;20410;-62
2023/08/17 06:43:04;;;;;;;7.70;2.20;;;;;;;;;;5113407;28;20447;-62
2023/08/17 06:45:34;;;;;;;6.63;2.65;;;;;;;;;;5113136;28;20048;-62
2023/08/17 06:48:00;;;;;;;9.23;2.67;;;;;;;;;;5113296;28;20039;-62
2023/08/17 06:50:27;;;;;;;6.53;2.72;;;;;;;;;;5113503;28;20393;-62
2023/08/17 06:52:53;;;;;;;7.32;1.83;;;;;;;;;;5112506;28;20048;-62
2023/08/17 06:55:19;;;;;;;5.78;2.42;;;;;;;;;;5112529;28;20031;-62
2023/08/17 06:57:45;;;;;;;3.70;1.70;;;;;;;;;;5113081;28;20075;-62
2023/08/17 07:00:12;;;;;;;5.22;2.10;;;;;;;;;;5124648;27;20601;-62
2023/08/17 07:02:38;;;;;;;9.68;2.20;;;;;;;;;;5114688;27;20123;-62
2023/08/17 07:05:05;;;;;;;4.32;2.13;;;;;;;;;;5132022;27;20050;-62
2023/08/17 07:07:33;;;;;;;5.43;1.92;;;;;;;;;;5132152;27;20374;-62
2023/08/17 07:09:59;;;;;;;6.32;2.10;;;;;;;;;;5112551;28;20047;-62
2023/08/17 07:12:26;;;;;;;6.28;2.10;;;;;;;;;;5125457;27;20090;-62
2023/08/17 07:14:52;;;;;;;5.85;2.15;;;;;;;;;;5132443;27;20047;-62
2023/08/17 07:17:18;;;;;;;4.65;2.45;;;;;;;;;;5131794;27;20164;-62
2023/08/17 07:19:44;;;;;;;8.73;2.40;;;;;;;;;;5125279;27;20122;-62
2023/08/17 07:22:10;;;;;;;8.00;2.20;;;;;;;;;;5112289;28;20054;-62
2023/08/17 07:24:36;;;;;;;6.47;1.90;;;;;;;;;;5126357;27;20083;-62
2023/08/17 07:27:02;;;;;;;7.03;2.42;;;;;;;;;;5116930;27;20363;-62
2023/08/17 07:29:28;;;;;;;5.30;1.92;;;;;;;;;;5132399;27;20038;-62
2023/08/17 07:31:58;;;;;;;3.63;1.92;;;;;;;;;;5132760;27;20039;-62
2023/08/17 07:34:24;;;;;;;6.38;2.13;;;;;;;;;;5132802;27;20043;-62
2023/08/17 07:36:50;;;;;;;9.98;2.50;;;;;;;;;;5132245;27;20379;-62
2023/08/17 07:39:16;;;;;;;4.38;1.77;;;;;;;;;;5132537;27;20035;-63
2023/08/17 07:41:42;;;;;;;3.35;1.92;;;;;;;;;;5131871;27;20065;-63
2023/08/17 07:44:08;;;;;;;7.20;3.15;;;;;;;;;;5131898;27;20043;-63
2023/08/17 07:46:34;;;;;;;4.47;1.80;;;;;;;;;;5132436;27;20039;-63
2023/08/17 07:49:00;;;;;;;6.15;1.42;;;;;;;;;;5132269;27;20054;-63
2023/08/17 07:51:29;;;;;;;5.78;1.70;;;;;;;;;;5113712;27;20050;-63
2023/08/17 07:53:56;;;;;;;5.80;1.80;;;;;;;;;;5132018;27;20122;-63
2023/08/17 07:56:22;;;;;;;3.70;1.55;;;;;;;;;;5132353;27;20050;-64
2023/08/17 07:58:48;;;;;;;4.00;1.50;;;;;;;;;;5132576;27;20035;-63
2023/08/17 08:01:14;;;;;;;4.55;1.55;;;;;;;;;;5131424;27;20035;-62
2023/08/17 08:03:40;;;;;;;6.78;1.75;;;;;;;;;;5131735;27;20120;-62
2023/08/17 08:06:06;;;;;;;4.32;1.23;;;;;;;;;;5131895;27;20118;-62
2023/08/17 08:08:32;;;;;;;7.10;1.80;;;;;;;;;;5121993;27;20119;-63
2023/08/17 08:10:59;;;;;;;4.85;1.50;;;;;;;;;;5111211;28;20039;-62
2023/08/17 08:13:25;;;;;;;3.83;1.52;;;;;;;;;;5131400;27;20092;-63
2023/08/17 08:15:51;;;;;;;4.97;1.77;;;;;;;;;;5129854;27;20050;-63
2023/08/17 08:18:17;;;;;;;5.70;1.42;;;;;;;;;;5132283;27;20610;-63
2023/08/17 08:20:43;;;;;;;6.90;1.80;;;;;;;;;;5132022;27;20054;-62
2023/08/17 08:23:09;;;;;;;3.58;1.45;;;;;;;;;;5131155;27;20086;-63
2023/08/17 09:29:33;;;;;;;3.78;1.65;;;;;;;;;;5099511;27;20447;-60
2023/08/17 09:31:59;;;;;;;3.58;1.67;;;;;;;;;;5108818;28;20437;-60
2023/08/17 09:34:25;;;;;;;5.80;1.40;;;;;;;;;;5108053;28;20127;-61
2023/08/17 09:36:51;;;;;;;6.95;1.63;;;;;;;;;;5108431;28;20118;-61
2023/08/17 09:39:18;;;;;;;4.43;1.30;;;;;;;;;;5090740;28;20040;-61
2023/08/17 09:41:44;;;;;;;4.68;1.55;;;;;;;;;;5088330;28;20033;-61
2023/08/17 09:44:11;;;;;;;3.38;1.30;;;;;;;;;;5095203;28;20385;-61
2023/08/17 09:46:38;;;;;;;3.13;1.45;;;;;;;;;;5100323;28;20032;-61
2023/08/17 09:49:04;;;;;;;3.10;1.30;;;;;;;;;;5102520;28;20153;-61
2023/08/17 09:51:31;;;;;;;3.28;1.88;;;;;;;;;;5107989;28;20040;-61
2023/08/17 09:53:57;;;;;;;5.65;1.92;;;;;;;;;;5108702;28;20078;-60
2023/08/17 09:56:24;;;;;;;6.88;1.98;;;;;;;;;;5108254;28;20036;-59
2023/08/17 09:58:50;;;;;;;4.82;1.67;;;;;;;;;;5107029;28;20359;-59
2023/08/17 10:01:17;;;;;;;7.53;1.52;;;;;;;;;;5108383;28;20044;-59
2023/08/17 10:03:49;;;;;;;3.88;1.40;;;;;;;;;;5102653;28;20459;-59
2023/08/17 10:06:17;;;;;;;2.88;1.35;;;;;;;;;;5107939;28;20047;-60
2023/08/17 10:08:45;;;;;;;3.22;1.40;;;;;;;;;;5108103;28;20094;-60
2023/08/17 10:11:12;;;;;;;3.13;1.35;;;;;;;;;;5108526;28;20479;-61
2023/08/17 10:14:06;;;;;;;6.13;1.55;;;;;;;;;;5107751;28;20040;-61
2023/08/17 10:16:36;;;;;;;4.13;1.50;;;;;;;;;;5107355;28;20058;-61
2023/08/17 10:19:20;;;;;;;4.57;1.60;;;;;;;;;;5107973;28;20047;-61
2023/08/17 10:21:46;;;;;;;5.15;1.70;;;;;;;;;;5108215;28;20385;-61
2023/08/17 10:24:12;;;;;;;4.15;1.45;;;;;;;;;;5108013;28;20036;-61
2023/08/17 10:26:39;;;;;;;2.80;1.38;;;;;;;;;;5107501;28;20458;-61
2023/08/17 10:29:05;;;;;;;5.35;1.35;;;;;;;;;;5107376;28;20137;-61
2023/08/17 10:31:34;;;;;;;3.72;1.60;;;;;;;;;;5107450;28;20066;-61
2023/08/17 10:34:00;;;;;;;3.50;1.38;;;;;;;;;;5107598;28;20114;-61
2023/08/17 10:36:27;;;;;;;4.38;1.63;;;;;;;;;;5107563;28;20048;-61
2023/08/17 10:39:11;;;;;;;4.70;1.60;;;;;;;;;;5088002;28;20045;-62
2023/08/17 10:41:46;;;;;;;4.38;1.63;;;;;;;;;;5091252;28;20043;-61
2023/08/17 10:44:12;;;;;;;5.72;1.60;;;;;;;;;;5093831;28;20554;-61
2023/08/17 10:46:44;;;;;;;3.65;2.05;;;;;;;;;;5094219;28;20047;-61
2023/08/17 10:49:25;;;;;;;4.28;1.48;;;;;;;;;;5092272;28;20051;-61
2023/08/17 10:52:05;;;;;;;3.95;1.42;;;;;;;;;;5093398;28;20040;-61
2023/08/17 10:54:40;;;;;;;3.85;1.30;;;;;;;;;;5093957;28;20036;-61
2023/08/17 10:57:32;;;;;;;4.22;1.42;;;;;;;;;;5093463;28;20070;-61
2023/08/17 10:59:59;;;;;;;;;;;;;;;;;;5093187;28;20075;-61
2023/08/17 11:02:25;;;;;;;2.95;1.77;;;;;;;;;;5093959;28;19927;-61
2023/08/17 11:04:52;;;;;;;4.95;1.70;;;;;;;;;;5093808;28;20047;-61
2023/08/17 11:07:19;;;;;;;7.32;2.00;;;;;;;;;;5093436;28;20044;-61
2023/08/17 11:09:44;;;;;;;5.90;2.08;;;;;;;;;;5093624;28;20143;-61
2023/08/17 11:12:25;;;;;;;4.32;1.90;;;;;;;;;;5093462;28;20036;-61
2023/08/17 11:14:51;;;;;;;5.28;2.15;;;;;;;;;;5093470;28;20035;-61
2023/08/17 11:17:20;;;;;;;4.90;2.13;;;;;;;;;;5093301;28;20040;-61
2023/08/17 11:19:47;;;;;;;6.47;2.33;;;;;;;;;;5093015;28;20092;-61
2023/08/17 11:22:13;;;;;;;4.50;1.88;;;;;;;;;;5093337;28;20169;-61
2023/08/17 11:24:42;;;;;;;5.45;2.13;;;;;;;;;;5093248;28;20036;-61
2023/08/17 11:27:08;;;;;;;5.22;2.20;;;;;;;;;;5093215;28;20478;-61
2023/08/17 11:29:35;;;;;;;4.97;1.80;;;;;;;;;;5092804;28;20428;-61
2023/08/17 11:32:01;;;;;;;4.30;2.45;;;;;;;;;;5091392;28;20040;-61
2023/08/17 11:34:28;;;;;;;3.55;2.28;;;;;;;;;;5093100;28;20039;-61
2023/08/17 11:36:57;;;;;;;6.68;2.75;;;;;;;;;;5090735;28;20039;-61
2023/08/17 11:39:23;;;;;;;6.50;2.40;;;;;;;;;;5072742;28;20074;-61
2023/08/17 11:41:51;;;;;;;6.13;2.55;;;;;;;;;;5089996;28;20044;-61
2023/08/17 11:44:21;;;;;;;5.57;2.80;;;;;;;;;;5092775;28;20043;-61
2023/08/17 11:46:47;;;;;;;7.78;3.00;;;;;;;;;;5093132;28;20378;-61
2023/08/17 11:49:13;;;;;;;3.05;2.65;;;;;;;;;;5092697;28;20112;-61
2023/08/17 11:51:40;;;;;;;6.18;2.97;;;;;;;;;;5091320;28;20122;-61
2023/08/17 11:54:07;;;;;;;4.88;3.20;;;;;;;;;;5092563;28;20055;-61
2023/08/17 11:56:33;;;;;;;7.40;3.28;;;;;;;;;;5092716;28;20044;-61
2023/08/17 11:59:08;;;;;;;6.47;3.15;;;;;;;;;;5092127;28;20047;-61
2023/08/17 12:01:35;;;;;;;5.47;3.50;;;;;;;;;;5092628;28;20036;-61
2023/08/17 12:04:01;;;;;;;6.32;3.30;;;;;;;;;;5092775;28;20474;-61
2023/08/17 12:06:27;;;;;;;5.70;3.17;;;;;;;;;;5091992;28;20044;-61
2023/08/17 12:08:53;;;;;;;4.18;2.80;;;;;;;;;;5090949;28;20158;-61
2023/08/17 12:11:19;;;;;;;6.72;3.35;;;;;;;;;;5092558;28;20441;-61
2023/08/17 12:13:50;;;;;;;5.40;3.75;;;;;;;;;;5091924;28;20032;-61
2023/08/17 12:16:17;;;;;;;6.32;3.78;;;;;;;;;;5092298;28;20044;-61
2023/08/17 12:18:48;;;;;;;5.88;3.38;;;;;;;;;;5092318;28;20105;-61
2023/08/17 12:21:14;;;;;;;5.90;3.40;;;;;;;;;;5091839;28;20456;-61
2023/08/17 12:23:40;;;;;;;7.13;3.70;;;;;;;;;;5092409;28;20371;-61
2023/08/17 12:26:06;;;;;;;7.60;3.65;;;;;;;;;;5092043;28;20123;-61
2023/08/17 12:28:33;;;;;;;5.75;3.30;;;;;;;;;;5091237;28;20127;-61
2023/08/17 12:31:03;;;;;;;5.68;3.45;;;;;;;;;;5092065;28;20051;-61
2023/08/17 12:33:29;;;;;;;5.68;3.60;;;;;;;;;;5091869;28;20044;-61
2023/08/17 12:35:55;;;;;;;5.53;3.20;;;;;;;;;;5091652;28;20105;-61
2023/08/17 12:38:22;;;;;;;6.65;3.75;;;;;;;;;;5079055;28;20041;-61
2023/08/17 12:40:48;;;;;;;6.55;4.03;;;;;;;;;;5078652;28;20052;-61
2023/08/17 12:43:14;;;;;;;7.97;3.40;;;;;;;;;;5091486;28;20394;-61
2023/08/17 12:45:40;;;;;;;7.45;3.28;;;;;;;;;;5091828;28;20622;-61
2023/08/17 12:48:06;;;;;;;6.05;4.00;;;;;;;;;;5091550;28;20096;-61
2023/08/17 12:50:32;;;;;;;5.82;3.30;;;;;;;;;;5091496;28;20081;-61
2023/08/17 12:52:58;;;;;;;6.78;3.63;;;;;;;;;;5091541;28;20431;-61
2023/08/17 12:55:25;;;;;;;6.97;3.28;;;;;;;;;;5091923;28;20123;-61
2023/08/17 12:57:51;;;;;;;8.30;3.70;;;;;;;;;;5091178;28;20036;-61
2023/08/17 13:00:17;;;;;;;7.22;3.80;;;;;;;;;;5091362;28;20554;-61
2023/08/17 13:02:45;;;;;;;5.35;3.15;;;;;;;;;;5091488;28;20149;-61
2023/08/17 13:05:11;;;;;;;7.15;3.38;;;;;;;;;;5090936;28;20059;-61
2023/08/17 13:07:37;;;;;;;5.80;3.75;;;;;;;;;;5091439;28;20036;-61
2023/08/17 13:10:03;;;;;;;9.02;3.83;;;;;;;;;;5091159;28;20040;-61
2023/08/17 13:12:29;;;;;;;7.53;3.50;;;;;;;;;;5090871;28;20048;-61
2023/08/17 13:14:55;;;;;;;5.40;3.30;;;;;;;;;;5091595;28;20040;-61
2023/08/17 13:17:21;;;;;;;7.05;3.88;;;;;;;;;;5091496;28;20124;-61
2023/08/17 13:19:47;;;;;;;7.40;3.65;;;;;;;;;;5091103;28;20047;-61
2023/08/17 13:22:13;;;;;;;5.82;3.40;;;;;;;;;;5091372;28;20036;-61
2023/08/17 13:24:40;;;;;;;5.90;3.45;;;;;;;;;;5091194;28;20383;-61
2023/08/17 13:27:06;;;;;;;3.85;3.05;;;;;;;;;;5090552;28;20044;-61
2023/08/17 13:29:32;;;;;;;6.70;3.45;;;;;;;;;;5091203;28;20044;-61
2023/08/17 13:31:58;;;;;;;6.25;3.28;;;;;;;;;;5091433;28;20058;-61
2023/08/17 13:34:24;;;;;;;6.72;3.50;;;;;;;;;;5090718;28;20048;-61
2023/08/17 13:36:50;;;;;;;4.43;3.70;;;;;;;;;;5091118;28;20043;-61
2023/08/17 13:39:16;;;;;;;5.90;3.78;;;;;;;;;;5071027;28;20052;-61
2023/08/17 13:41:42;;;;;;;7.03;3.90;;;;;;;;;;5083209;28;20040;-61
2023/08/17 13:44:08;;;;;;;5.25;3.55;;;;;;;;;;5091082;28;20495;-61
2023/08/17 13:46:34;;;;;;;5.43;3.42;;;;;;;;;;5090681;28;20044;-61
2023/08/17 13:49:01;;;;;;;5.18;3.35;;;;;;;;;;5090295;28;20036;-61
2023/08/17 13:51:27;;;;;;;6.45;4.00;;;;;;;;;;5090793;28;20032;-61
2023/08/17 13:53:53;;;;;;;5.13;3.45;;;;;;;;;;5090930;28;20040;-61
2023/08/17 13:56:19;;;;;;;5.03;3.58;;;;;;;;;;5090258;28;20042;-61
2023/08/17 13:58:45;;;;;;;7.32;3.42;;;;;;;;;;5090826;28;20490;-61
2023/08/17 14:01:11;;;;;;;4.60;3.40;;;;;;;;;;5090775;28;20056;-61
2023/08/17 14:03:38;;;;;;;9.50;3.40;;;;;;;;;;5090147;28;20052;-61
2023/08/17 14:06:04;;;;;;;5.80;3.75;;;;;;;;;;5090654;28;20109;-61
2023/08/17 14:08:30;;;;;;;5.82;3.47;;;;;;;;;;5089537;28;20467;-61
2023/08/17 14:10:56;;;;;;;7.07;3.90;;;;;;;;;;5090506;28;20044;-61
2023/08/17 14:13:22;;;;;;;4.38;3.90;;;;;;;;;;5091214;28;20174;-61
2023/08/17 14:15:48;;;;;;;5.05;3.83;;;;;;;;;;5093719;28;20048;-61
2023/08/17 14:18:14;;;;;;;5.22;4.05;;;;;;;;;;5093391;28;20040;-61
2023/08/17 14:20:40;;;;;;;5.00;3.80;;;;;;;;;;5094762;28;20484;-61
2023/08/17 14:23:06;;;;;;;6.18;3.75;;;;;;;;;;5094932;28;20040;-61
2023/08/17 14:25:32;;;;;;;6.47;3.80;;;;;;;;;;5094456;28;20052;-61
2023/08/17 14:27:59;;;;;;;9.63;4.10;;;;;;;;;;5094558;28;20050;-61
2023/08/17 14:30:26;;;;;;;5.28;3.47;;;;;;;;;;5094711;28;20036;-61
2023/08/17 14:32:52;;;;;;;5.53;3.17;;;;;;;;;;5094279;28;20036;-61
2023/08/17 14:35:18;;;;;;;4.57;3.03;;;;;;;;;;5094627;28;20458;-61
2023/08/17 14:37:44;;;;;;;5.60;3.20;;;;;;;;;;5087250;28;20682;-61
2023/08/17 14:40:10;;;;;;;4.88;3.50;;;;;;;;;;5073866;28;20075;-61
2023/08/17 14:42:36;;;;;;;6.88;3.22;;;;;;;;;;5074337;28;20058;-61
2023/08/17 14:45:02;;;;;;;6.35;3.45;;;;;;;;;;5074284;28;20734;-61
2023/08/17 14:47:28;;;;;;;5.85;4.03;;;;;;;;;;5073791;28;20388;-61
2023/08/17 14:49:55;;;;;;;7.93;3.92;;;;;;;;;;5074177;28;20048;-61
2023/08/17 14:52:22;;;;;;;5.55;3.58;;;;;;;;;;5073979;28;20453;-61
2023/08/17 14:54:48;;;;;;;6.35;4.32;;;;;;;;;;5073831;28;20045;-61
2023/08/17 14:57:14;;;;;;;8.05;4.13;;;;;;;;;;5073862;28;20582;-61
2023/08/17 14:59:40;;;;;;;7.00;4.40;;;;;;;;;;5073887;28;20119;-61
2023/08/17 15:02:06;;;;;;;9.38;4.70;;;;;;;;;;5073851;28;20036;-61
2023/08/17 15:04:32;;;;;;;6.82;4.10;;;;;;;;;;5073681;28;20041;-61
2023/08/17 15:06:59;;;;;;;6.57;4.00;;;;;;;;;;5073871;28;20084;-61
2023/08/17 15:09:25;;;;;;;6.22;4.70;;;;;;;;;;5073799;28;20086;-61
2023/08/17 15:11:51;;;;;;;6.95;4.30;;;;;;;;;;5073391;28;20043;-61
2023/08/17 15:14:17;;;;;;;8.63;4.32;;;;;;;;;;5073708;28;20029;-61
2023/08/17 15:16:43;;;;;;;8.95;4.50;;;;;;;;;;5073698;28;20043;-61
2023/08/17 15:19:09;;;;;;;6.65;4.20;;;;;;;;;;5073349;28;20044;-61
2023/08/17 15:21:35;;;;;;;5.10;3.90;;;;;;;;;;5073610;28;20119;-61
2023/08/17 15:24:01;;;;;;;4.72;3.90;;;;;;;;;;5073687;28;20044;-61
2023/08/17 15:26:27;;;;;;;6.20;3.83;;;;;;;;;;5073254;28;20450;-61
2023/08/17 15:28:53;;;;;;;4.93;4.43;;;;;;;;;;5073011;28;20088;-61
2023/08/17 15:31:19;;;;;;;5.00;3.50;;;;;;;;;;5073244;28;20135;-61
2023/08/17 15:33:45;;;;;;;6.68;4.47;;;;;;;;;;5072713;28;20036;-61
2023/08/17 15:36:11;;;;;;;5.40;4.57;;;;;;;;;;5073175;28;20386;-61
2023/08/17 15:38:37;;;;;;;5.18;4.25;;;;;;;;;;5073501;28;20379;-61
2023/08/17 15:41:03;;;;;;;5.63;4.25;;;;;;;;;;5072672;28;20799;-61
2023/08/17 15:43:29;;;;;;;4.63;4.00;;;;;;;;;;5073247;28;20178;-61
2023/08/17 15:45:55;;;;;;;7.38;5.00;;;;;;;;;;5073156;28;20044;-61